11h53 EDT


 

Suivi/Infos de l'aéroport


-ou-


 

Suivi des vols en temps réel9Y-TTC ✈ 01-05-2013 ✈ TTCP / TAB - TTPP / POS

Thumbnail
9Y-TTC / BWA1541
Unknown Owner · Trinidad & Tobago
Crown Point ( – info)
Scarborough, Tobago TT
Piarco Int'l ( – info)
Port-d'Espagne TT
Prévu: 21h45 AST
Prévu: 21h50 AST
Durée: 18 minutes
mercredi, 1 mai 2013
Statut Arrivé il y a plus d'un an. (journal de vol & graphique)
Avion Aerospatiale ATR-42-300 (bi-turbopropulseur) (AT43 – photos)
Vitesse Plan de vol: 532 kts (graphique)
Distance En ligne droite 83 km
Une partie au moins de ce vol se déroule hors de la zone de services primaire de FlightAware. Pour en savoir plus sur la couverture et la zone de services de FlightAware.
JOURNAL DE L'ACTIVITE
Vous voulez une recherche complète sur l'historique de 9Y-TTC depuis 1998? Achetez maintenant. Recevez-le dans l'heure.
Date Avion Provenance Destination Départ Arrivée Durée
23-08-2014 AT43Crown Point ()Piarco Int'l () 11h18 AST 11h41 AST 0:23
23-08-2014 AT43Piarco Int'l ()Crown Point () 10h30 AST 10h48 AST 0:18
23-08-2014 AT43Crown Point ()Piarco Int'l () 09h01 AST 09h20 AST 0:19
23-08-2014 AT43Piarco Int'l ()Crown Point () 08h13 AST 08h27 AST 0:13
23-08-2014 AT43Crown Point ()Piarco Int'l () 07h15 AST 07h33 AST 0:18
23-08-2014 AT43Piarco Int'l ()Crown Point () 06h16 AST 06h34 AST 0:18
22-08-2014 AT43Crown Point ()Piarco Int'l () 23h15 AST 23h43 AST 0:28
22-08-2014 AT43Piarco Int'l ()Crown Point () 22h20 AST 22h35 AST 0:14
22-08-2014 AT43Point Salines Int'l ()Piarco Int'l () 19h33 AST 21h02 AST 1:29
22-08-2014 AT43Piarco Int'l ()Point Salines Int'l () 19h21 AST 19h51 AST 0:29
22-08-2014 AT43Crown Point ()Piarco Int'l () 18h02 AST 18h20 AST 0:18
22-08-2014 AT43Piarco Int'l ()Crown Point () 17h11 AST 17h23 AST 0:11
22-08-2014 AT43Crown Point ()Piarco Int'l () 13h12 AST 14h31 AST 1:19
22-08-2014 AT43Piarco Int'l ()Crown Point () 13h04 AST 13h17 AST 0:12
22-08-2014 AT43Int'l Maiquetía ~ Simón Bolívar ()Piarco Int'l () 10h07 VET 12h05 AST 1:28
22-08-2014 AT43Piarco Int'l ()Int'l Maiquetía ~ Simón Bolívar () 08h07 AST 09h06 VET 1:29
21-08-2014 AT43Int'l Grantley-Adams ()Piarco Int'l () 21h17 AST 22h14 AST 0:57
21-08-2014 AT43Piarco Int'l ()Int'l Grantley-Adams () 19h49 AST 20h39 AST 0:49
21-08-2014 AT43George F. L. Charles ()Piarco Int'l () 15h34 AST 16h34 AST 1:00
21-08-2014 AT43Piarco Int'l ()George F. L. Charles () 13h56 AST 14h54 AST 0:58
21-08-2014 AT43Crown Point ()Piarco Int'l () 12h36 AST 12h52 AST 0:16
21-08-2014 AT43Piarco Int'l ()Crown Point () 11h36 AST 11h54 AST 0:17
21-08-2014 AT43Crown Point ()Piarco Int'l () 10h40 AST 10h56 AST 0:16
21-08-2014 AT43Piarco Int'l ()Crown Point () 09h48 AST 10h01 AST 0:12
21-08-2014 AT43Crown Point ()Piarco Int'l () 08h44 AST 08h55 AST 0:11
21-08-2014 AT43Piarco Int'l ()Crown Point () 07h48 AST 08h01 AST 0:12
21-08-2014 AT43Crown Point ()Piarco Int'l () 06h46 AST 07h04 AST 0:18
21-08-2014 AT43Piarco Int'l ()Crown Point () 05h55 AST 06h11 AST 0:15
20-08-2014 AT43Int'l Grantley-Adams ()Piarco Int'l () 20h55 AST 21h46 AST 0:51
20-08-2014 AT43Piarco Int'l ()Int'l Grantley-Adams () 19h20 AST 20h14 AST 0:54
20-08-2014 AT43George F. L. Charles ()Piarco Int'l () 15h44 AST 16h42 AST 0:58
20-08-2014 AT43Piarco Int'l ()George F. L. Charles () 14h12 AST 15h12 AST 1:00
20-08-2014 AT43Crown Point ()Piarco Int'l () 12h43 AST 13h02 AST 0:19
20-08-2014 AT43Piarco Int'l ()Crown Point () 11h49 AST 12h08 AST 0:19
20-08-2014 AT43Crown Point ()Piarco Int'l () 10h45 AST 11h04 AST 0:19
20-08-2014 AT43Piarco Int'l ()Crown Point () 09h52 AST 10h09 AST 0:17
20-08-2014 AT43Crown Point ()Piarco Int'l () 08h47 AST 09h00 AST 0:13
20-08-2014 AT43Piarco Int'l ()Crown Point () 07h47 AST 08h02 AST 0:14
20-08-2014 AT43Crown Point ()Piarco Int'l () 06h43 AST 07h00 AST 0:17
20-08-2014 AT43Piarco Int'l ()Crown Point () 05h50 AST 06h07 AST 0:17
20-08-2014 AT43Crown Point ()Piarco Int'l () 01h08 AST 01h24 AST 0:16
19-08-2014 AT43Crown Point ()Piarco Int'l () 23h39 AST 23h54 AST 0:15
19-08-2014 AT43Point Salines Int'l ()Piarco Int'l () 21h24 AST 21h53 AST 0:29
19-08-2014 AT43Piarco Int'l ()Point Salines Int'l () 19h59 AST 20h29 AST 0:29
19-08-2014 AT43Crown Point ()Piarco Int'l () 18h41 AST 19h00 AST 0:19
19-08-2014 AT43Piarco Int'l ()Crown Point () 17h42 AST 17h59 AST 0:17
19-08-2014 AT43Crown Point ()Piarco Int'l () 16h33 AST 16h51 AST 0:18
19-08-2014 AT43Piarco Int'l ()Crown Point () 15h24 AST 15h42 AST 0:18
19-08-2014 AT43Crown Point ()Piarco Int'l () 14h05 AST 14h26 AST 0:21
19-08-2014 AT43Piarco Int'l ()Crown Point () 12h56 AST 13h15 AST 0:19
19-08-2014 AT43Int'l Maiquetía ~ Simón Bolívar ()Piarco Int'l () 09h59 VET 11h59 AST 1:30
19-08-2014 AT43Piarco Int'l ()Int'l Maiquetía ~ Simón Bolívar () 07h46 AST 08h46 VET 1:29
18-08-2014 AT43Crown Point ()Piarco Int'l () 22h45 AST 23h02 AST 0:17
18-08-2014 AT43Piarco Int'l ()Crown Point () 21h48 AST 22h06 AST 0:18
18-08-2014 AT43Crown Point ()Piarco Int'l () 20h18 AST 20h39 AST 0:21
18-08-2014 AT43Piarco Int'l ()Crown Point () 19h19 AST 19h38 AST 0:19
18-08-2014 AT43Crown Point ()Piarco Int'l () 18h10 AST 18h28 AST 0:18
18-08-2014 AT43Piarco Int'l ()Crown Point () 17h03 AST 17h20 AST 0:17
18-08-2014 AT43Crown Point ()Piarco Int'l () 15h58 AST 16h17 AST 0:19
18-08-2014 AT43Piarco Int'l ()Crown Point () 15h00 AST 15h17 AST 0:17
18-08-2014 AT43Crown Point ()Piarco Int'l () 13h33 AST 13h56 AST 0:23
18-08-2014 AT43Piarco Int'l ()Crown Point () 12h28 AST 12h44 AST 0:16
18-08-2014 AT43Crown Point ()Piarco Int'l () 11h19 AST 11h40 AST 0:21
18-08-2014 AT43Piarco Int'l ()Crown Point () 10h35 AST 10h49 AST 0:13
18-08-2014 AT43Crown Point ()Piarco Int'l () 09h24 AST 09h42 AST 0:18
18-08-2014 AT43Piarco Int'l ()Crown Point () 08h25 AST 08h39 AST 0:13
18-08-2014 AT43Crown Point ()Piarco Int'l () 07h20 AST 07h38 AST 0:18
18-08-2014 AT43Piarco Int'l ()Crown Point () 06h27 AST 06h40 AST 0:12
17-08-2014 AT43Crown Point ()Piarco Int'l () 23h06 AST 23h27 AST 0:21
17-08-2014 AT43Piarco Int'l ()Crown Point () 21h59 AST 22h17 AST 0:17
17-08-2014 AT43Crown Point ()Piarco Int'l () 20h52 AST 21h09 AST 0:17
17-08-2014 AT43Piarco Int'l ()Crown Point () 19h53 AST 20h09 AST 0:15
17-08-2014 AT43Crown Point ()Piarco Int'l () 18h42 AST 18h59 AST 0:17
17-08-2014 AT43Piarco Int'l ()Crown Point () 17h41 AST 17h56 AST 0:14
17-08-2014 AT43Crown Point ()Piarco Int'l () 13h49 AST 14h10 AST 0:21
17-08-2014 AT43Piarco Int'l ()Crown Point () 12h35 AST 12h55 AST 0:20
17-08-2014 AT43Int'l Grantley-Adams ()Piarco Int'l () 10h32 AST 11h24 AST 0:52
17-08-2014 AT43Piarco Int'l ()Int'l Grantley-Adams () 08h44 AST 09h35 AST 0:51
15-08-2014 AT43Piarco Int'l ()Crown Point () 14h46 AST 15h12 AST 0:25
15-08-2014 AT43Crown Point ()Piarco Int'l () 13h29 AST 13h47 AST 0:18
15-08-2014 AT43Piarco Int'l ()Crown Point () 12h31 AST 12h48 AST 0:16
15-08-2014 AT43Crown Point ()Piarco Int'l () 11h20 AST 11h40 AST 0:20
15-08-2014 AT43Piarco Int'l ()Crown Point () 10h20 AST 10h35 AST 0:14
15-08-2014 AT43Crown Point ()Piarco Int'l () 09h10 AST 09h17 AST 0:06
15-08-2014 AT43Piarco Int'l ()Crown Point () 08h19 AST 08h33 AST 0:13
15-08-2014 AT43Crown Point ()Piarco Int'l () 07h18 AST 07h35 AST 0:17
15-08-2014 AT43Piarco Int'l ()Crown Point () 06h30 AST 06h49 AST 0:19
14-08-2014 AT43Int'l Grantley-Adams ()Piarco Int'l () 22h03 AST 22h55 AST 0:52
14-08-2014 AT43Piarco Int'l ()Int'l Grantley-Adams () 20h35 AST 21h30 AST 0:55
14-08-2014 AT43Crown Point ()Piarco Int'l () 18h48 AST 19h05 AST 0:17
14-08-2014 AT43Piarco Int'l ()Crown Point () 17h51 AST 18h06 AST 0:15
14-08-2014 AT43George F. L. Charles ()Piarco Int'l () 15h44 AST 16h44 AST 1:00
14-08-2014 AT43Piarco Int'l ()George F. L. Charles () 14h09 AST 15h07 AST 0:57
14-08-2014 AT43Crown Point ()Piarco Int'l () 11h04 AST 12h50 AST 1:46
14-08-2014 AT43Piarco Int'l ()Crown Point () 09h26 AST 09h42 AST 0:15
14-08-2014 AT43Crown Point ()Piarco Int'l () 06h53 AST 07h20 AST 0:27
14-08-2014 AT43Piarco Int'l ()Crown Point () 05h58 AST 06h11 AST 0:12
13-08-2014 AT43Crown Point ()Piarco Int'l () 21h48 AST 22h08 AST 0:20
13-08-2014 AT43Piarco Int'l ()Crown Point () 20h42 AST 21h02 AST 0:20
Les membres inscrits (l'inscription est gratuite et facile!) voient 4 months d'historique. S'inscrire